Abeille Honfleur 19 — FV6095 — position and weather

sailwx.info

Track history (hours):
 
Tides and Currents Weather Stations Pressure Air Temp Water Temp Dewpoint Dewpoint Depression Visibility Wind Speed Wind Dir Waves Ship Positions

Abeille Honfleur 19

Last reported at 2015-Apr-25 04:33 UTC. Time now 2015-Apr-28 02:07 UTC.
Position N 47°18' W 002°06'.

Length 30 m.

Type: Tug. MMSI: 227005280.

Date/timePositionNaut miles runAvg speedWind from/ knotsBaromVisibWave heightAir tempDewpointWater temp
2015-Apr-25 04:33N 47°18' W 002°06'0 0.3
2015-Apr-25 03:33N 47°18' W 002°07'3 2.8
2015-Apr-25 02:33N 47°17' W 002°10'2 0.1
2015-Apr-24 07:28N 47°18' W 002°08'4 3.9
2015-Apr-24 06:32N 47°16' W 002°12'5 0.3
2015-Apr-23 14:27N 47°18' W 002°06'  
2015-Apr-21 05:25N 47°16' W 002°12'0 0.0
2015-Apr-21 04:28N 47°16' W 002°12'0 0.0
2015-Apr-21 03:28N 47°16' W 002°12'0 0.0
2015-Apr-21 02:31N 47°16' W 002°12'0 0.0
2015-Apr-21 01:31N 47°16' W 002°12'  
2015-Apr-16 10:30N 47°16' W 002°12'0 0.0
2015-Apr-16 08:30N 47°16' W 002°12'0 0.0
2015-Apr-16 07:30N 47°16' W 002°12'0 0.2
2015-Apr-16 06:33N 47°16' W 002°12'5 3.8
2015-Apr-16 05:22N 47°18' W 002°06'0 0.0
2015-Apr-16 04:31N 47°18' W 002°06'0 0.0
2015-Apr-16 03:31N 47°18' W 002°06'0 0.0
2015-Apr-16 02:28N 47°18' W 002°06'3 3.3
2015-Apr-16 01:32N 47°17' W 002°10'2 1.5
2015-Apr-16 00:31N 47°16' W 002°12'0 0.0
2015-Apr-15 23:27N 47°16' W 002°12'0 0.0
2015-Apr-15 20:33N 47°16' W 002°12'0 0.0
2015-Apr-15 19:34N 47°16' W 002°12'0 0.0
2015-Apr-15 18:16N 47°16' W 002°12'0 0.0
2015-Apr-15 17:28N 47°16' W 002°12'0 0.0
2015-Apr-15 09:20N 47°16' W 002°12'0 0.0
2015-Apr-15 08:25N 47°16' W 002°12'0 0.0
2015-Apr-15 07:28N 47°16' W 002°12'0 0.0
2015-Apr-15 05:23N 47°16' W 002°12'  
Track history (hours):
 
Tides and Currents Weather Stations Pressure Air Temp Water Temp Dewpoint Dewpoint Depression Visibility Wind Speed Wind Dir Waves Ship Positions

Abeille Honfleur 19

Last reported at 2015-Apr-25 04:33 UTC. Time now 2015-Apr-28 02:07 UTC.
Position N 47°18' W 002°06'.

Length 30 m.

Type: Tug. MMSI: 227005280.

Date/timePositionNaut miles runAvg speedWind from/ knotsBaromVisibWave heightAir tempDewpointWater temp
2015-Apr-25 04:33N 47°18' W 002°06'0 0.3
2015-Apr-25 03:33N 47°18' W 002°07'3 2.8
2015-Apr-25 02:33N 47°17' W 002°10'2 0.1
2015-Apr-24 07:28N 47°18' W 002°08'4 3.9
2015-Apr-24 06:32N 47°16' W 002°12'5 0.3
2015-Apr-23 14:27N 47°18' W 002°06'  
2015-Apr-21 05:25N 47°16' W 002°12'0 0.0
2015-Apr-21 04:28N 47°16' W 002°12'0 0.0
2015-Apr-21 03:28N 47°16' W 002°12'0 0.0
2015-Apr-21 02:31N 47°16' W 002°12'0 0.0
2015-Apr-21 01:31N 47°16' W 002°12'  
2015-Apr-16 10:30N 47°16' W 002°12'0 0.0
2015-Apr-16 08:30N 47°16' W 002°12'0 0.0
2015-Apr-16 07:30N 47°16' W 002°12'0 0.2
2015-Apr-16 06:33N 47°16' W 002°12'5 3.8
2015-Apr-16 05:22N 47°18' W 002°06'0 0.0
2015-Apr-16 04:31N 47°18' W 002°06'0 0.0
2015-Apr-16 03:31N 47°18' W 002°06'0 0.0
2015-Apr-16 02:28N 47°18' W 002°06'3 3.3
2015-Apr-16 01:32N 47°17' W 002°10'2 1.5
2015-Apr-16 00:31N 47°16' W 002°12'0 0.0
2015-Apr-15 23:27N 47°16' W 002°12'0 0.0
2015-Apr-15 20:33N 47°16' W 002°12'0 0.0
2015-Apr-15 19:34N 47°16' W 002°12'0 0.0
2015-Apr-15 18:16N 47°16' W 002°12'0 0.0
2015-Apr-15 17:28N 47°16' W 002°12'0 0.0
2015-Apr-15 09:20N 47°16' W 002°12'0 0.0
2015-Apr-15 08:25N 47°16' W 002°12'0 0.0
2015-Apr-15 07:28N 47°16' W 002°12'0 0.0
2015-Apr-15 05:23N 47°16' W 002°12'  

Dump ship's entire track history